sensor_id;sensor_type;location;lat;lon;timestamp;P1;durP1;ratioP1;P2;durP2;ratioP2
53281;SDS011;39167;52.794;6.892;2023-03-25T00:01:00;11.15;;;1.85;;
53281;SDS011;39167;52.794;6.892;2023-03-25T00:03:31;11.82;;;1.95;;
53281;SDS011;39167;52.794;6.892;2023-03-25T00:06:03;10.88;;;2.33;;
53281;SDS011;39167;52.794;6.892;2023-03-25T00:08:30;9.25;;;2.17;;
53281;SDS011;39167;52.794;6.892;2023-03-25T00:10:57;11.73;;;2.25;;
53281;SDS011;39167;52.794;6.892;2023-03-25T00:13:24;6.20;;;2.40;;
53281;SDS011;39167;52.794;6.892;2023-03-25T00:15:51;7.70;;;2.10;;
53281;SDS011;39167;52.794;6.892;2023-03-25T00:18:18;7.53;;;2.30;;
53281;SDS011;39167;52.794;6.892;2023-03-25T00:20:47;8.23;;;2.28;;
53281;SDS011;39167;52.794;6.892;2023-03-25T00:23:15;10.68;;;2.30;;
53281;SDS011;39167;52.794;6.892;2023-03-25T00:25:41;10.05;;;2.50;;
53281;SDS011;39167;52.794;6.892;2023-03-25T00:28:09;9.20;;;2.72;;
53281;SDS011;39167;52.794;6.892;2023-03-25T00:30:39;5.50;;;2.33;;
53281;SDS011;39167;52.794;6.892;2023-03-25T00:33:05;6.57;;;2.58;;
53281;SDS011;39167;52.794;6.892;2023-03-25T00:35:31;7.15;;;2.88;;
53281;SDS011;39167;52.794;6.892;2023-03-25T00:37:57;7.30;;;3.25;;
53281;SDS011;39167;52.794;6.892;2023-03-25T00:40:27;7.80;;;2.90;;
53281;SDS011;39167;52.794;6.892;2023-03-25T00:42:59;10.52;;;3.72;;
53281;SDS011;39167;52.794;6.892;2023-03-25T00:45:25;9.13;;;3.42;;
53281;SDS011;39167;52.794;6.892;2023-03-25T00:47:51;12.05;;;3.53;;
53281;SDS011;39167;52.794;6.892;2023-03-25T00:50:17;7.70;;;3.58;;
53281;SDS011;39167;52.794;6.892;2023-03-25T00:52:42;7.00;;;3.17;;
53281;SDS011;39167;52.794;6.892;2023-03-25T00:55:08;6.55;;;3.22;;
53281;SDS011;39167;52.794;6.892;2023-03-25T00:57:34;7.90;;;4.30;;
53281;SDS011;39167;52.794;6.892;2023-03-25T01:00:00;8.55;;;3.70;;
53281;SDS011;39167;52.794;6.892;2023-03-25T01:02:30;10.70;;;3.90;;
53281;SDS011;39167;52.794;6.892;2023-03-25T01:04:57;7.40;;;3.63;;
53281;SDS011;39167;52.794;6.892;2023-03-25T01:07:24;8.98;;;3.97;;
53281;SDS011;39167;52.794;6.892;2023-03-25T01:09:50;10.73;;;3.40;;
53281;SDS011;39167;52.794;6.892;2023-03-25T01:12:16;10.65;;;3.65;;
53281;SDS011;39167;52.794;6.892;2023-03-25T01:14:43;12.52;;;3.75;;
53281;SDS011;39167;52.794;6.892;2023-03-25T01:17:09;8.77;;;3.65;;
53281;SDS011;39167;52.794;6.892;2023-03-25T01:19:35;6.03;;;3.50;;
53281;SDS011;39167;52.794;6.892;2023-03-25T01:22:01;12.00;;;3.75;;
53281;SDS011;39167;52.794;6.892;2023-03-25T01:24:27;9.85;;;3.63;;
53281;SDS011;39167;52.794;6.892;2023-03-25T01:26:53;8.25;;;3.58;;
53281;SDS011;39167;52.794;6.892;2023-03-25T01:29:19;10.93;;;3.83;;
53281;SDS011;39167;52.794;6.892;2023-03-25T01:31:45;8.77;;;3.03;;
53281;SDS011;39167;52.794;6.892;2023-03-25T01:34:12;10.13;;;3.22;;
53281;SDS011;39167;52.794;6.892;2023-03-25T01:36:38;11.40;;;3.42;;
53281;SDS011;39167;52.794;6.892;2023-03-25T01:39:05;7.82;;;3.47;;
53281;SDS011;39167;52.794;6.892;2023-03-25T01:41:33;11.13;;;3.15;;
53281;SDS011;39167;52.794;6.892;2023-03-25T01:46:38;9.50;;;3.00;;
53281;SDS011;39167;52.794;6.892;2023-03-25T01:49:09;11.60;;;3.53;;
53281;SDS011;39167;52.794;6.892;2023-03-25T01:51:48;7.75;;;2.47;;
53281;SDS011;39167;52.794;6.892;2023-03-25T01:56:45;11.98;;;3.20;;
53281;SDS011;39167;52.794;6.892;2023-03-25T01:59:13;10.50;;;2.83;;
53281;SDS011;39167;52.794;6.892;2023-03-25T02:01:43;8.80;;;2.42;;
53281;SDS011;39167;52.794;6.892;2023-03-25T02:04:13;8.75;;;2.70;;
53281;SDS011;39167;52.794;6.892;2023-03-25T02:06:50;8.32;;;2.50;;
53281;SDS011;39167;52.794;6.892;2023-03-25T02:11:45;12.02;;;2.80;;
53281;SDS011;39167;52.794;6.892;2023-03-25T02:14:12;8.32;;;2.75;;
53281;SDS011;39167;52.794;6.892;2023-03-25T02:27:41;9.60;;;2.25;;
53281;SDS011;39167;52.794;6.892;2023-03-25T02:41:05;11.88;;;2.75;;
53281;SDS011;39167;52.794;6.892;2023-03-25T02:44:10;10.77;;;3.40;;
53281;SDS011;39167;52.794;6.892;2023-03-25T02:46:42;14.55;;;3.47;;
53281;SDS011;39167;52.794;6.892;2023-03-25T02:49:55;13.98;;;2.75;;
53281;SDS011;39167;52.794;6.892;2023-03-25T02:52:09;16.75;;;3.08;;
53281;SDS011;39167;52.794;6.892;2023-03-25T02:54:39;9.93;;;2.63;;
53281;SDS011;39167;52.794;6.892;2023-03-25T02:57:09;17.77;;;2.90;;
53281;SDS011;39167;52.794;6.892;2023-03-25T02:59:38;20.65;;;3.10;;
53281;SDS011;39167;52.794;6.892;2023-03-25T03:02:06;15.85;;;2.92;;
53281;SDS011;39167;52.794;6.892;2023-03-25T03:04:44;12.82;;;3.25;;
53281;SDS011;39167;52.794;6.892;2023-03-25T03:07:22;15.25;;;3.47;;
53281;SDS011;39167;52.794;6.892;2023-03-25T03:15:32;11.13;;;2.67;;
53281;SDS011;39167;52.794;6.892;2023-03-25T03:18:12;19.30;;;2.92;;
53281;SDS011;39167;52.794;6.892;2023-03-25T03:20:54;16.65;;;2.95;;
53281;SDS011;39167;52.794;6.892;2023-03-25T03:23:28;15.93;;;2.80;;
53281;SDS011;39167;52.794;6.892;2023-03-25T03:29:08;13.25;;;2.40;;
53281;SDS011;39167;52.794;6.892;2023-03-25T03:31:46;15.25;;;2.50;;
53281;SDS011;39167;52.794;6.892;2023-03-25T03:34:19;17.40;;;2.97;;
53281;SDS011;39167;52.794;6.892;2023-03-25T03:36:51;15.50;;;2.75;;
53281;SDS011;39167;52.794;6.892;2023-03-25T03:39:23;16.20;;;3.10;;
53281;SDS011;39167;52.794;6.892;2023-03-25T03:41:53;11.90;;;2.72;;
53281;SDS011;39167;52.794;6.892;2023-03-25T03:44:27;17.35;;;2.58;;
53281;SDS011;39167;52.794;6.892;2023-03-25T03:46:58;17.00;;;3.47;;
53281;SDS011;39167;52.794;6.892;2023-03-25T03:49:37;15.80;;;3.10;;
53281;SDS011;39167;52.794;6.892;2023-03-25T03:54:49;13.07;;;2.88;;
53281;SDS011;39167;52.794;6.892;2023-03-25T03:57:36;14.85;;;2.72;;
53281;SDS011;39167;52.794;6.892;2023-03-25T04:00:15;17.80;;;2.97;;
53281;SDS011;39167;52.794;6.892;2023-03-25T04:02:51;14.43;;;3.05;;
53281;SDS011;39167;52.794;6.892;2023-03-25T04:05:23;12.98;;;2.63;;
53281;SDS011;39167;52.794;6.892;2023-03-25T04:08:00;11.13;;;2.42;;
53281;SDS011;39167;52.794;6.892;2023-03-25T04:10:41;11.20;;;2.90;;
53281;SDS011;39167;52.794;6.892;2023-03-25T04:13:17;16.00;;;3.47;;
53281;SDS011;39167;52.794;6.892;2023-03-25T04:15:47;12.10;;;2.50;;
53281;SDS011;39167;52.794;6.892;2023-03-25T04:18:13;12.18;;;3.55;;
53281;SDS011;39167;52.794;6.892;2023-03-25T04:20:39;16.73;;;3.42;;
53281;SDS011;39167;52.794;6.892;2023-03-25T04:23:09;12.95;;;3.28;;
53281;SDS011;39167;52.794;6.892;2023-03-25T04:25:43;15.73;;;3.35;;
53281;SDS011;39167;52.794;6.892;2023-03-25T04:28:13;14.15;;;3.00;;
53281;SDS011;39167;52.794;6.892;2023-03-25T04:30:41;15.50;;;3.17;;
53281;SDS011;39167;52.794;6.892;2023-03-25T04:33:11;16.85;;;3.40;;
53281;SDS011;39167;52.794;6.892;2023-03-25T04:35:37;16.58;;;2.85;;
53281;SDS011;39167;52.794;6.892;2023-03-25T04:38:04;8.95;;;2.78;;
53281;SDS011;39167;52.794;6.892;2023-03-25T04:40:33;9.65;;;2.80;;
53281;SDS011;39167;52.794;6.892;2023-03-25T04:42:59;14.10;;;3.92;;
53281;SDS011;39167;52.794;6.892;2023-03-25T04:45:24;10.15;;;2.85;;
53281;SDS011;39167;52.794;6.892;2023-03-25T04:47:52;9.82;;;3.08;;
53281;SDS011;39167;52.794;6.892;2023-03-25T04:50:22;11.57;;;3.17;;
53281;SDS011;39167;52.794;6.892;2023-03-25T04:52:51;13.55;;;3.20;;
53281;SDS011;39167;52.794;6.892;2023-03-25T04:55:18;14.88;;;3.67;;
53281;SDS011;39167;52.794;6.892;2023-03-25T04:57:49;13.55;;;3.42;;
53281;SDS011;39167;52.794;6.892;2023-03-25T05:00:17;11.48;;;3.83;;
53281;SDS011;39167;52.794;6.892;2023-03-25T05:02:45;10.02;;;3.13;;
53281;SDS011;39167;52.794;6.892;2023-03-25T05:05:13;16.55;;;4.00;;
53281;SDS011;39167;52.794;6.892;2023-03-25T05:07:43;19.40;;;3.80;;
53281;SDS011;39167;52.794;6.892;2023-03-25T05:10:19;12.40;;;3.50;;
53281;SDS011;39167;52.794;6.892;2023-03-25T05:12:56;10.50;;;3.72;;
53281;SDS011;39167;52.794;6.892;2023-03-25T05:15:23;11.27;;;3.95;;
53281;SDS011;39167;52.794;6.892;2023-03-25T05:17:49;13.15;;;3.63;;
53281;SDS011;39167;52.794;6.892;2023-03-25T05:20:14;12.80;;;4.20;;
53281;SDS011;39167;52.794;6.892;2023-03-25T05:22:40;11.82;;;4.05;;
53281;SDS011;39167;52.794;6.892;2023-03-25T05:25:07;14.35;;;4.47;;
53281;SDS011;39167;52.794;6.892;2023-03-25T05:27:34;15.55;;;4.70;;
53281;SDS011;39167;52.794;6.892;2023-03-25T05:30:01;12.63;;;4.18;;
53281;SDS011;39167;52.794;6.892;2023-03-25T05:32:28;12.27;;;4.45;;
53281;SDS011;39167;52.794;6.892;2023-03-25T05:34:54;9.98;;;4.45;;
53281;SDS011;39167;52.794;6.892;2023-03-25T05:37:20;14.85;;;5.20;;
53281;SDS011;39167;52.794;6.892;2023-03-25T05:39:46;14.23;;;5.18;;
53281;SDS011;39167;52.794;6.892;2023-03-25T05:42:12;19.85;;;5.80;;
53281;SDS011;39167;52.794;6.892;2023-03-25T05:44:38;15.85;;;5.15;;
53281;SDS011;39167;52.794;6.892;2023-03-25T05:47:15;12.27;;;5.15;;
53281;SDS011;39167;52.794;6.892;2023-03-25T05:49:46;16.70;;;5.75;;
53281;SDS011;39167;52.794;6.892;2023-03-25T05:52:12;13.88;;;5.43;;
53281;SDS011;39167;52.794;6.892;2023-03-25T05:54:38;14.73;;;5.88;;
53281;SDS011;39167;52.794;6.892;2023-03-25T05:57:05;14.02;;;5.68;;
53281;SDS011;39167;52.794;6.892;2023-03-25T05:59:34;13.82;;;5.65;;
53281;SDS011;39167;52.794;6.892;2023-03-25T06:02:03;12.00;;;4.13;;
53281;SDS011;39167;52.794;6.892;2023-03-25T06:04:32;11.10;;;2.15;;
53281;SDS011;39167;52.794;6.892;2023-03-25T06:07:12;8.95;;;1.45;;
53281;SDS011;39167;52.794;6.892;2023-03-25T06:09:43;5.97;;;1.92;;
53281;SDS011;39167;52.794;6.892;2023-03-25T06:12:17;7.00;;;1.75;;
53281;SDS011;39167;52.794;6.892;2023-03-25T06:14:44;7.60;;;1.70;;
53281;SDS011;39167;52.794;6.892;2023-03-25T06:17:11;8.07;;;2.13;;
53281;SDS011;39167;52.794;6.892;2023-03-25T06:19:37;7.78;;;2.60;;
53281;SDS011;39167;52.794;6.892;2023-03-25T06:22:06;10.77;;;3.63;;
53281;SDS011;39167;52.794;6.892;2023-03-25T06:24:36;10.68;;;3.40;;
53281;SDS011;39167;52.794;6.892;2023-03-25T06:27:13;12.45;;;3.63;;
53281;SDS011;39167;52.794;6.892;2023-03-25T06:29:40;10.95;;;3.53;;
53281;SDS011;39167;52.794;6.892;2023-03-25T06:32:06;18.90;;;3.40;;
53281;SDS011;39167;52.794;6.892;2023-03-25T06:34:33;10.70;;;3.30;;
53281;SDS011;39167;52.794;6.892;2023-03-25T06:37:01;10.88;;;3.00;;
53281;SDS011;39167;52.794;6.892;2023-03-25T06:39:28;9.43;;;2.15;;
53281;SDS011;39167;52.794;6.892;2023-03-25T06:41:58;7.63;;;2.10;;
53281;SDS011;39167;52.794;6.892;2023-03-25T06:44:24;11.32;;;2.30;;
53281;SDS011;39167;52.794;6.892;2023-03-25T06:46:51;8.15;;;2.47;;
53281;SDS011;39167;52.794;6.892;2023-03-25T06:49:17;6.25;;;1.90;;
53281;SDS011;39167;52.794;6.892;2023-03-25T06:51:43;8.70;;;2.05;;
53281;SDS011;39167;52.794;6.892;2023-03-25T06:54:09;11.45;;;2.30;;
53281;SDS011;39167;52.794;6.892;2023-03-25T06:56:35;8.93;;;2.25;;
53281;SDS011;39167;52.794;6.892;2023-03-25T06:59:01;7.18;;;2.70;;
53281;SDS011;39167;52.794;6.892;2023-03-25T07:01:27;11.80;;;2.83;;
53281;SDS011;39167;52.794;6.892;2023-03-25T07:03:53;9.88;;;2.83;;
53281;SDS011;39167;52.794;6.892;2023-03-25T07:06:19;9.68;;;2.50;;
53281;SDS011;39167;52.794;6.892;2023-03-25T07:08:46;15.25;;;2.80;;
53281;SDS011;39167;52.794;6.892;2023-03-25T07:11:13;12.10;;;3.08;;
53281;SDS011;39167;52.794;6.892;2023-03-25T07:13:41;15.48;;;3.15;;
53281;SDS011;39167;52.794;6.892;2023-03-25T07:16:07;9.65;;;3.03;;
53281;SDS011;39167;52.794;6.892;2023-03-25T07:18:33;17.90;;;3.40;;
53281;SDS011;39167;52.794;6.892;2023-03-25T07:20:59;15.98;;;2.72;;
53281;SDS011;39167;52.794;6.892;2023-03-25T07:23:25;10.60;;;2.65;;
53281;SDS011;39167;52.794;6.892;2023-03-25T07:25:51;18.98;;;3.25;;
53281;SDS011;39167;52.794;6.892;2023-03-25T07:28:17;18.20;;;3.33;;
53281;SDS011;39167;52.794;6.892;2023-03-25T07:30:43;15.90;;;3.47;;
53281;SDS011;39167;52.794;6.892;2023-03-25T07:33:09;14.65;;;3.25;;
53281;SDS011;39167;52.794;6.892;2023-03-25T07:35:34;15.80;;;4.30;;
53281;SDS011;39167;52.794;6.892;2023-03-25T07:38:00;11.98;;;3.72;;
53281;SDS011;39167;52.794;6.892;2023-03-25T07:40:27;13.75;;;3.85;;
53281;SDS011;39167;52.794;6.892;2023-03-25T07:42:52;13.90;;;3.10;;
53281;SDS011;39167;52.794;6.892;2023-03-25T07:45:18;12.98;;;3.08;;
53281;SDS011;39167;52.794;6.892;2023-03-25T07:47:44;17.58;;;3.42;;
53281;SDS011;39167;52.794;6.892;2023-03-25T07:50:15;12.63;;;3.60;;
53281;SDS011;39167;52.794;6.892;2023-03-25T07:52:41;13.95;;;3.55;;
53281;SDS011;39167;52.794;6.892;2023-03-25T07:55:07;17.45;;;3.92;;
53281;SDS011;39167;52.794;6.892;2023-03-25T07:57:33;12.73;;;3.30;;
53281;SDS011;39167;52.794;6.892;2023-03-25T07:59:59;15.95;;;3.83;;
53281;SDS011;39167;52.794;6.892;2023-03-25T08:02:25;13.75;;;3.03;;
53281;SDS011;39167;52.794;6.892;2023-03-25T08:04:50;17.10;;;3.58;;
53281;SDS011;39167;52.794;6.892;2023-03-25T08:07:19;18.02;;;4.22;;
53281;SDS011;39167;52.794;6.892;2023-03-25T08:09:45;16.27;;;3.90;;
53281;SDS011;39167;52.794;6.892;2023-03-25T08:12:11;21.17;;;4.70;;
53281;SDS011;39167;52.794;6.892;2023-03-25T08:14:36;17.80;;;3.97;;
53281;SDS011;39167;52.794;6.892;2023-03-25T08:17:04;15.52;;;2.90;;
53281;SDS011;39167;52.794;6.892;2023-03-25T08:19:30;14.57;;;1.77;;
53281;SDS011;39167;52.794;6.892;2023-03-25T08:21:56;12.68;;;2.50;;
53281;SDS011;39167;52.794;6.892;2023-03-25T08:24:21;13.48;;;2.70;;
53281;SDS011;39167;52.794;6.892;2023-03-25T08:26:49;21.13;;;4.63;;
53281;SDS011;39167;52.794;6.892;2023-03-25T08:29:15;21.17;;;3.38;;
53281;SDS011;39167;52.794;6.892;2023-03-25T08:31:42;14.95;;;3.50;;
53281;SDS011;39167;52.794;6.892;2023-03-25T08:34:11;14.82;;;3.50;;
53281;SDS011;39167;52.794;6.892;2023-03-25T08:36:36;22.27;;;4.25;;
53281;SDS011;39167;52.794;6.892;2023-03-25T08:39:04;17.58;;;3.30;;
53281;SDS011;39167;52.794;6.892;2023-03-25T08:41:35;16.83;;;2.97;;
53281;SDS011;39167;52.794;6.892;2023-03-25T08:44:02;17.40;;;3.85;;
53281;SDS011;39167;52.794;6.892;2023-03-25T08:46:29;24.08;;;4.00;;
53281;SDS011;39167;52.794;6.892;2023-03-25T08:48:54;18.73;;;3.67;;
53281;SDS011;39167;52.794;6.892;2023-03-25T08:51:20;14.48;;;3.70;;
53281;SDS011;39167;52.794;6.892;2023-03-25T08:53:46;16.17;;;3.55;;
53281;SDS011;39167;52.794;6.892;2023-03-25T08:56:12;18.00;;;2.83;;
53281;SDS011;39167;52.794;6.892;2023-03-25T08:58:38;17.67;;;3.25;;
53281;SDS011;39167;52.794;6.892;2023-03-25T09:01:04;21.00;;;3.25;;
53281;SDS011;39167;52.794;6.892;2023-03-25T09:03:31;20.40;;;3.00;;
53281;SDS011;39167;52.794;6.892;2023-03-25T09:05:57;15.65;;;3.65;;
53281;SDS011;39167;52.794;6.892;2023-03-25T09:08:27;18.33;;;3.78;;
53281;SDS011;39167;52.794;6.892;2023-03-25T09:10:53;14.63;;;3.50;;
53281;SDS011;39167;52.794;6.892;2023-03-25T09:13:20;16.35;;;3.50;;
53281;SDS011;39167;52.794;6.892;2023-03-25T09:15:45;15.05;;;3.15;;
53281;SDS011;39167;52.794;6.892;2023-03-25T09:18:11;15.52;;;3.05;;
53281;SDS011;39167;52.794;6.892;2023-03-25T09:20:38;17.60;;;3.13;;
53281;SDS011;39167;52.794;6.892;2023-03-25T09:23:03;16.52;;;3.33;;
53281;SDS011;39167;52.794;6.892;2023-03-25T09:25:29;17.85;;;3.88;;
53281;SDS011;39167;52.794;6.892;2023-03-25T09:27:55;16.63;;;3.70;;
53281;SDS011;39167;52.794;6.892;2023-03-25T09:30:21;22.00;;;3.90;;
53281;SDS011;39167;52.794;6.892;2023-03-25T09:32:46;19.85;;;4.07;;
53281;SDS011;39167;52.794;6.892;2023-03-25T09:35:12;18.48;;;3.72;;
53281;SDS011;39167;52.794;6.892;2023-03-25T09:37:38;13.52;;;3.38;;
53281;SDS011;39167;52.794;6.892;2023-03-25T09:40:04;25.00;;;3.85;;
53281;SDS011;39167;52.794;6.892;2023-03-25T09:48:16;22.23;;;4.93;;
53281;SDS011;39167;52.794;6.892;2023-03-25T09:51:00;22.02;;;4.00;;
53281;SDS011;39167;52.794;6.892;2023-03-25T09:56:17;17.98;;;5.13;;
53281;SDS011;39167;52.794;6.892;2023-03-25T09:58:47;16.80;;;3.63;;
53281;SDS011;39167;52.794;6.892;2023-03-25T10:06:42;20.45;;;3.15;;
53281;SDS011;39167;52.794;6.892;2023-03-25T10:25:46;13.52;;;2.88;;
53281;SDS011;39167;52.794;6.892;2023-03-25T10:28:18;16.73;;;2.85;;
53281;SDS011;39167;52.794;6.892;2023-03-25T10:30:50;13.15;;;2.78;;
53281;SDS011;39167;52.794;6.892;2023-03-25T10:33:21;13.52;;;2.17;;
53281;SDS011;39167;52.794;6.892;2023-03-25T10:35:52;7.28;;;1.90;;
53281;SDS011;39167;52.794;6.892;2023-03-25T10:38:21;12.25;;;1.90;;
53281;SDS011;39167;52.794;6.892;2023-03-25T10:40:57;10.77;;;2.05;;
53281;SDS011;39167;52.794;6.892;2023-03-25T10:43:44;11.15;;;1.90;;
53281;SDS011;39167;52.794;6.892;2023-03-25T10:46:29;13.05;;;2.63;;
53281;SDS011;39167;52.794;6.892;2023-03-25T10:49:18;12.98;;;2.47;;
53281;SDS011;39167;52.794;6.892;2023-03-25T10:51:46;15.00;;;2.67;;
53281;SDS011;39167;52.794;6.892;2023-03-25T10:54:17;15.73;;;3.17;;
53281;SDS011;39167;52.794;6.892;2023-03-25T10:56:44;18.48;;;3.30;;
53281;SDS011;39167;52.794;6.892;2023-03-25T11:01:45;16.83;;;3.28;;
53281;SDS011;39167;52.794;6.892;2023-03-25T11:04:13;20.83;;;3.03;;
53281;SDS011;39167;52.794;6.892;2023-03-25T11:06:46;11.15;;;3.45;;
53281;SDS011;39167;52.794;6.892;2023-03-25T11:11:49;17.48;;;2.88;;
53281;SDS011;39167;52.794;6.892;2023-03-25T11:14:20;18.67;;;3.08;;
53281;SDS011;39167;52.794;6.892;2023-03-25T11:17:00;17.10;;;2.47;;
53281;SDS011;39167;52.794;6.892;2023-03-25T11:22:18;12.95;;;2.38;;
53281;SDS011;39167;52.794;6.892;2023-03-25T11:24:53;12.52;;;2.47;;
53281;SDS011;39167;52.794;6.892;2023-03-25T11:27:25;13.27;;;2.50;;
53281;SDS011;39167;52.794;6.892;2023-03-25T11:29:54;12.90;;;2.33;;
53281;SDS011;39167;52.794;6.892;2023-03-25T11:32:34;15.13;;;2.35;;
53281;SDS011;39167;52.794;6.892;2023-03-25T11:35:05;17.08;;;3.20;;
53281;SDS011;39167;52.794;6.892;2023-03-25T11:37:47;24.15;;;4.38;;
53281;SDS011;39167;52.794;6.892;2023-03-25T11:40:22;13.57;;;2.60;;
53281;SDS011;39167;52.794;6.892;2023-03-25T11:42:52;15.52;;;2.83;;
53281;SDS011;39167;52.794;6.892;2023-03-25T11:45:22;16.10;;;2.83;;
53281;SDS011;39167;52.794;6.892;2023-03-25T11:47:51;16.60;;;3.28;;
53281;SDS011;39167;52.794;6.892;2023-03-25T11:50:24;18.35;;;2.50;;
53281;SDS011;39167;52.794;6.892;2023-03-25T11:52:52;15.48;;;2.75;;
53281;SDS011;39167;52.794;6.892;2023-03-25T11:55:25;12.15;;;2.47;;
53281;SDS011;39167;52.794;6.892;2023-03-25T11:57:54;17.70;;;3.15;;
53281;SDS011;39167;52.794;6.892;2023-03-25T12:00:31;19.10;;;2.63;;
53281;SDS011;39167;52.794;6.892;2023-03-25T12:03:03;16.20;;;2.50;;
53281;SDS011;39167;52.794;6.892;2023-03-25T12:05:39;16.60;;;2.67;;
53281;SDS011;39167;52.794;6.892;2023-03-25T12:08:09;12.38;;;2.53;;
53281;SDS011;39167;52.794;6.892;2023-03-25T12:16:05;14.38;;;2.88;;
53281;SDS011;39167;52.794;6.892;2023-03-25T12:21:19;13.38;;;2.40;;
53281;SDS011;39167;52.794;6.892;2023-03-25T12:23:51;12.82;;;2.50;;
53281;SDS011;39167;52.794;6.892;2023-03-25T12:32:10;14.32;;;2.08;;
53281;SDS011;39167;52.794;6.892;2023-03-25T12:43:28;10.95;;;2.42;;
53281;SDS011;39167;52.794;6.892;2023-03-25T12:57:16;18.13;;;2.65;;
53281;SDS011;39167;52.794;6.892;2023-03-25T13:13:30;10.32;;;2.63;;
53281;SDS011;39167;52.794;6.892;2023-03-25T13:18:44;12.05;;;2.05;;
53281;SDS011;39167;52.794;6.892;2023-03-25T13:21:24;13.02;;;2.58;;
53281;SDS011;39167;52.794;6.892;2023-03-25T13:23:58;14.20;;;2.60;;
53281;SDS011;39167;52.794;6.892;2023-03-25T13:26:36;12.68;;;2.20;;
53281;SDS011;39167;52.794;6.892;2023-03-25T13:29:16;13.73;;;2.58;;
53281;SDS011;39167;52.794;6.892;2023-03-25T13:31:54;15.88;;;2.50;;
53281;SDS011;39167;52.794;6.892;2023-03-25T13:34:32;15.82;;;2.35;;
53281;SDS011;39167;52.794;6.892;2023-03-25T13:45:22;11.10;;;2.05;;
53281;SDS011;39167;52.794;6.892;2023-03-25T13:50:25;12.20;;;2.20;;
53281;SDS011;39167;52.794;6.892;2023-03-25T13:52:58;13.65;;;2.40;;
53281;SDS011;39167;52.794;6.892;2023-03-25T13:55:33;11.57;;;2.40;;
53281;SDS011;39167;52.794;6.892;2023-03-25T14:11:26;11.02;;;2.10;;
53281;SDS011;39167;52.794;6.892;2023-03-25T14:13:56;12.77;;;2.47;;
53281;SDS011;39167;52.794;6.892;2023-03-25T14:16:35;14.45;;;2.13;;
53281;SDS011;39167;52.794;6.892;2023-03-25T14:19:08;11.52;;;2.22;;
53281;SDS011;39167;52.794;6.892;2023-03-25T14:24:14;16.08;;;2.95;;
53281;SDS011;39167;52.794;6.892;2023-03-25T14:27:06;18.73;;;2.45;;
53281;SDS011;39167;52.794;6.892;2023-03-25T14:29:46;16.40;;;2.33;;
53281;SDS011;39167;52.794;6.892;2023-03-25T14:34:43;10.30;;;2.10;;
53281;SDS011;39167;52.794;6.892;2023-03-25T14:39:45;11.10;;;2.47;;
53281;SDS011;39167;52.794;6.892;2023-03-25T14:44:52;13.30;;;2.53;;
53281;SDS011;39167;52.794;6.892;2023-03-25T14:47:49;14.55;;;2.10;;
53281;SDS011;39167;52.794;6.892;2023-03-25T14:52:49;6.70;;;1.65;;
53281;SDS011;39167;52.794;6.892;2023-03-25T14:55:25;13.98;;;2.22;;
53281;SDS011;39167;52.794;6.892;2023-03-25T15:00:56;6.25;;;1.20;;
53281;SDS011;39167;52.794;6.892;2023-03-25T15:03:35;8.05;;;1.30;;
53281;SDS011;39167;52.794;6.892;2023-03-25T15:06:04;8.07;;;1.98;;
53281;SDS011;39167;52.794;6.892;2023-03-25T15:11:02;5.03;;;1.30;;
53281;SDS011;39167;52.794;6.892;2023-03-25T15:13:38;6.17;;;1.43;;
53281;SDS011;39167;52.794;6.892;2023-03-25T15:16:17;5.80;;;1.63;;
53281;SDS011;39167;52.794;6.892;2023-03-25T15:21:16;8.43;;;1.90;;
53281;SDS011;39167;52.794;6.892;2023-03-25T15:23:43;7.32;;;1.70;;
53281;SDS011;39167;52.794;6.892;2023-03-25T15:26:31;7.50;;;1.55;;
53281;SDS011;39167;52.794;6.892;2023-03-25T15:41:00;9.00;;;1.50;;
53281;SDS011;39167;52.794;6.892;2023-03-25T15:57:21;7.50;;;1.40;;
53281;SDS011;39167;52.794;6.892;2023-03-25T16:04:58;5.45;;;1.50;;
53281;SDS011;39167;52.794;6.892;2023-03-25T16:07:25;10.23;;;1.90;;
53281;SDS011;39167;52.794;6.892;2023-03-25T16:09:54;8.35;;;1.95;;
53281;SDS011;39167;52.794;6.892;2023-03-25T16:12:28;7.93;;;1.80;;
53281;SDS011;39167;52.794;6.892;2023-03-25T16:14:53;8.60;;;1.52;;
53281;SDS011;39167;52.794;6.892;2023-03-25T16:17:20;5.70;;;1.50;;
53281;SDS011;39167;52.794;6.892;2023-03-25T16:19:50;11.57;;;1.90;;
53281;SDS011;39167;52.794;6.892;2023-03-25T16:22:24;5.38;;;1.55;;
53281;SDS011;39167;52.794;6.892;2023-03-25T16:24:57;5.10;;;1.48;;
53281;SDS011;39167;52.794;6.892;2023-03-25T16:27:35;4.88;;;1.60;;
53281;SDS011;39167;52.794;6.892;2023-03-25T16:32:46;7.90;;;1.88;;
53281;SDS011;39167;52.794;6.892;2023-03-25T16:37:52;7.28;;;1.48;;
53281;SDS011;39167;52.794;6.892;2023-03-25T16:40:26;6.50;;;1.50;;
53281;SDS011;39167;52.794;6.892;2023-03-25T16:42:54;9.95;;;1.63;;
53281;SDS011;39167;52.794;6.892;2023-03-25T16:45:43;7.80;;;1.30;;
53281;SDS011;39167;52.794;6.892;2023-03-25T16:48:12;8.60;;;1.58;;
53281;SDS011;39167;52.794;6.892;2023-03-25T16:50:42;9.30;;;1.50;;
53281;SDS011;39167;52.794;6.892;2023-03-25T16:53:10;6.80;;;1.27;;
53281;SDS011;39167;52.794;6.892;2023-03-25T16:55:43;10.00;;;1.50;;
53281;SDS011;39167;52.794;6.892;2023-03-25T16:58:24;9.82;;;1.52;;
53281;SDS011;39167;52.794;6.892;2023-03-25T17:00:52;6.85;;;2.60;;
53281;SDS011;39167;52.794;6.892;2023-03-25T17:03:39;11.50;;;1.95;;
53281;SDS011;39167;52.794;6.892;2023-03-25T17:08:59;8.60;;;1.77;;
53281;SDS011;39167;52.794;6.892;2023-03-25T17:11:27;7.93;;;2.00;;
53281;SDS011;39167;52.794;6.892;2023-03-25T17:13:58;9.38;;;2.67;;
53281;SDS011;39167;52.794;6.892;2023-03-25T17:16:28;10.60;;;2.40;;
53281;SDS011;39167;52.794;6.892;2023-03-25T17:18:55;12.88;;;2.50;;
53281;SDS011;39167;52.794;6.892;2023-03-25T17:21:23;14.77;;;2.30;;
53281;SDS011;39167;52.794;6.892;2023-03-25T17:23:51;15.30;;;2.50;;
53281;SDS011;39167;52.794;6.892;2023-03-25T17:26:19;12.15;;;2.55;;
53281;SDS011;39167;52.794;6.892;2023-03-25T17:36:30;14.32;;;2.50;;
53281;SDS011;39167;52.794;6.892;2023-03-25T17:38:57;16.52;;;2.85;;
53281;SDS011;39167;52.794;6.892;2023-03-25T17:41:27;13.55;;;3.13;;
53281;SDS011;39167;52.794;6.892;2023-03-25T17:43:59;9.73;;;2.03;;
53281;SDS011;39167;52.794;6.892;2023-03-25T17:46:26;14.10;;;2.20;;
53281;SDS011;39167;52.794;6.892;2023-03-25T17:48:54;11.82;;;2.75;;
53281;SDS011;39167;52.794;6.892;2023-03-25T17:51:22;10.98;;;2.17;;
53281;SDS011;39167;52.794;6.892;2023-03-25T17:53:49;10.15;;;2.40;;
53281;SDS011;39167;52.794;6.892;2023-03-25T17:56:19;10.65;;;2.00;;
53281;SDS011;39167;52.794;6.892;2023-03-25T17:59:00;11.93;;;2.20;;
53281;SDS011;39167;52.794;6.892;2023-03-25T18:01:29;14.30;;;2.55;;
53281;SDS011;39167;52.794;6.892;2023-03-25T18:03:55;11.15;;;2.30;;
53281;SDS011;39167;52.794;6.892;2023-03-25T18:06:21;14.20;;;2.90;;
53281;SDS011;39167;52.794;6.892;2023-03-25T18:08:47;11.63;;;2.33;;
53281;SDS011;39167;52.794;6.892;2023-03-25T18:11:12;9.65;;;2.17;;
53281;SDS011;39167;52.794;6.892;2023-03-25T18:13:38;10.15;;;2.20;;
53281;SDS011;39167;52.794;6.892;2023-03-25T18:16:12;9.43;;;2.00;;
53281;SDS011;39167;52.794;6.892;2023-03-25T18:18:38;11.68;;;2.33;;
53281;SDS011;39167;52.794;6.892;2023-03-25T18:21:05;12.02;;;1.92;;
53281;SDS011;39167;52.794;6.892;2023-03-25T18:23:33;13.35;;;2.53;;
53281;SDS011;39167;52.794;6.892;2023-03-25T18:25:59;13.68;;;2.42;;
53281;SDS011;39167;52.794;6.892;2023-03-25T18:28:25;16.20;;;2.85;;
53281;SDS011;39167;52.794;6.892;2023-03-25T18:30:52;11.23;;;2.65;;
53281;SDS011;39167;52.794;6.892;2023-03-25T18:33:20;15.20;;;4.07;;
53281;SDS011;39167;52.794;6.892;2023-03-25T18:35:46;12.20;;;2.85;;